Time;durP1;ratioP1;P1;durP2;ratioP2;P2;SDS_P1;SDS_P2;PMS_P1;PMS_P2;Temp;Humidity;BMP_temperature;BMP_pressure;BME280_temperature;BME280_humidity;BME280_pressure;Samples;Min_cycle;Max_cycle;Signal;HPM_P1;HPM_P2
2021/08/04 08:48:04;;;;;;;6.53;4.15;;;;;;;;;;5108024;27;20450;-54
2021/08/04 08:50:30;;;;;;;2.20;1.60;;;;;;;;;;5108459;28;20032;-53
2021/08/04 08:52:59;;;;;;;2.58;1.20;;;;;;;;;;5108806;28;20039;-53
2021/08/04 08:55:25;;;;;;;2.17;1.33;;;;;;;;;;5108124;28;20023;-55
2021/08/04 08:57:52;;;;;;;3.33;1.58;;;;;;;;;;5108739;28;20077;-56
2021/08/04 09:00:18;;;;;;;9.15;4.47;;;;;;;;;;5108214;28;20020;-55
2021/08/04 09:02:44;;;;;;;6.88;1.65;;;;;;;;;;5106957;28;20148;-55
2021/08/04 09:05:11;;;;;;;2.97;1.38;;;;;;;;;;5108178;28;20038;-56
2021/08/04 09:07:41;;;;;;;3.85;1.33;;;;;;;;;;5109462;28;20028;-57
2021/08/04 09:10:25;;;;;;;3.77;2.20;;;;;;;;;;5108689;28;20020;-51
2021/08/04 09:12:56;;;;;;;6.82;4.32;;;;;;;;;;5108350;28;20265;-49
2021/08/04 09:27:05;;;;;;;2.20;1.83;;;;;;;;;;5151184;27;20133;-56
2021/08/04 09:29:31;;;;;;;1.92;1.63;;;;;;;;;;5150923;27;20039;-54
2021/08/04 09:31:57;;;;;;;3.55;1.98;;;;;;;;;;5151319;27;20030;-52
2021/08/04 09:34:28;;;;;;;2.10;1.90;;;;;;;;;;5150902;27;20023;-57
2021/08/04 09:37:14;;;;;;;4.05;2.00;;;;;;;;;;5150598;27;20034;-53
2021/08/04 09:39:41;;;;;;;2.60;2.00;;;;;;;;;;5150889;27;20046;-50
2021/08/04 09:42:08;;;;;;;21.08;6.72;;;;;;;;;;5150740;27;20484;-52
2021/08/04 09:44:34;;;;;;;3.70;2.38;;;;;;;;;;5150852;27;20030;-59
2021/08/04 09:47:07;;;;;;;3.55;1.85;;;;;;;;;;5151029;27;20023;-44
2021/08/04 09:49:33;;;;;;;3.50;2.10;;;;;;;;;;5150641;27;20442;-48
2021/08/04 09:52:03;;;;;;;4.68;3.45;;;;;;;;;;5132423;27;20352;-53
2021/08/04 09:54:35;;;;;;;3.97;2.50;;;;;;;;;;5150311;27;20480;-48
2021/08/04 09:57:01;;;;;;;7.75;4.15;;;;;;;;;;5150506;27;20770;-59
2021/08/04 09:59:28;;;;;;;145.63;55.97;;;;;;;;;;5150074;27;20068;-60
2021/08/04 10:01:56;;;;;;;17.65;8.43;;;;;;;;;;5150576;27;20027;-57
2021/08/04 10:04:22;;;;;;;28.65;11.73;;;;;;;;;;5150204;27;20019;-52
2021/08/04 10:06:48;;;;;;;2.58;2.28;;;;;;;;;;5131603;27;20115;-53
2021/08/04 10:09:15;;;;;;;4.90;2.50;;;;;;;;;;5150361;27;20556;-57
2021/08/04 10:11:46;;;;;;;20.55;12.02;;;;;;;;;;5150103;27;20031;-52
2021/08/04 10:14:13;;;;;;;3.15;2.85;;;;;;;;;;5150151;27;20015;-49
2021/08/04 10:16:40;;;;;;;3.58;2.58;;;;;;;;;;5149888;27;20027;-52
2021/08/04 10:19:06;;;;;;;3.30;2.55;;;;;;;;;;5150217;27;20027;-52
2021/08/04 10:21:36;;;;;;;4.60;3.35;;;;;;;;;;5149960;27;20042;-52
2021/08/04 10:24:09;;;;;;;2.75;2.03;;;;;;;;;;5150155;27;20052;-53
2021/08/04 10:26:36;;;;;;;4.07;2.05;;;;;;;;;;5144088;27;20503;-51
2021/08/04 10:29:02;;;;;;;4.72;2.50;;;;;;;;;;5135938;27;20383;-53
2021/08/04 10:31:28;;;;;;;2.45;2.25;;;;;;;;;;5136110;27;20027;-53
2021/08/04 10:34:01;;;;;;;4.10;2.40;;;;;;;;;;5135569;27;20425;-53
2021/08/04 10:36:43;;;;;;;4.00;2.30;;;;;;;;;;5136103;27;20042;-53
2021/08/04 10:39:11;;;;;;;3.63;2.30;;;;;;;;;;5136027;27;20094;-51
2021/08/04 10:41:37;;;;;;;4.15;2.38;;;;;;;;;;5135864;27;20023;-53
2021/08/04 10:44:05;;;;;;;4.00;2.05;;;;;;;;;;5136038;27;20015;-54
2021/08/04 10:46:31;;;;;;;4.10;2.25;;;;;;;;;;5135764;27;20027;-53
2021/08/04 10:49:06;;;;;;;3.65;2.20;;;;;;;;;;5135810;27;20496;-53
2021/08/04 10:51:36;;;;;;;5.38;2.33;;;;;;;;;;5135467;27;20027;-54
2021/08/04 10:54:03;;;;;;;3.10;2.00;;;;;;;;;;5135951;27;20030;-52
2021/08/04 10:56:31;;;;;;;5.05;2.25;;;;;;;;;;5135709;27;20184;-54
2021/08/04 11:01:37;;;;;;;2.63;2.08;;;;;;;;;;5135635;27;20035;-54
2021/08/04 11:04:04;;;;;;;3.65;2.10;;;;;;;;;;5135287;27;20553;-46
2021/08/04 11:06:32;;;;;;;2.63;1.92;;;;;;;;;;5135380;27;20160;-52
2021/08/04 11:09:13;;;;;;;1.60;1.50;;;;;;;;;;5135140;27;20022;-53
2021/08/04 11:11:55;;;;;;;4.95;2.17;;;;;;;;;;5135041;27;20106;-53
2021/08/04 11:14:36;;;;;;;2.33;2.00;;;;;;;;;;5135470;27;20051;-53
2021/08/04 11:17:03;;;;;;;2.75;2.10;;;;;;;;;;5135307;27;20022;-52
2021/08/04 11:19:34;;;;;;;2.22;2.03;;;;;;;;;;5135278;27;20092;-53
2021/08/04 11:22:19;;;;;;;4.30;2.40;;;;;;;;;;5135216;27;20110;-52
2021/08/04 11:24:55;;;;;;;2.72;2.00;;;;;;;;;;5135135;27;20035;-53
2021/08/04 11:27:22;;;;;;;2.65;2.10;;;;;;;;;;5134856;27;20053;-53
2021/08/04 11:29:49;;;;;;;3.55;2.03;;;;;;;;;;5135064;27;20034;-53
2021/08/04 11:32:19;;;;;;;4.65;2.30;;;;;;;;;;5134834;27;20031;-53
2021/08/04 11:34:45;;;;;;;2.28;2.08;;;;;;;;;;5134952;27;20423;-54
2021/08/04 11:37:11;;;;;;;2.30;2.00;;;;;;;;;;5134635;27;20033;-52
2021/08/04 11:39:51;;;;;;;3.13;2.22;;;;;;;;;;5133927;27;20054;-53
2021/08/04 11:42:17;;;;;;;4.18;2.13;;;;;;;;;;5134689;27;20091;-53
2021/08/04 11:44:43;;;;;;;2.58;1.85;;;;;;;;;;5134766;27;20357;-53
2021/08/04 11:47:10;;;;;;;3.30;2.00;;;;;;;;;;5134519;27;20023;-53
2021/08/04 11:49:42;;;;;;;2.15;1.95;;;;;;;;;;5134561;27;20030;-52
2021/08/04 11:52:16;;;;;;;2.63;1.80;;;;;;;;;;5134682;27;20496;-53
2021/08/04 11:54:47;;;;;;;3.47;2.10;;;;;;;;;;5134499;27;20035;-53
2021/08/04 11:57:13;;;;;;;;;;;;;;;;;;5134868;27;20037;-53
2021/08/04 11:59:52;;;;;;;4.75;2.42;;;;;;;;;;5134570;27;19938;-53
2021/08/04 12:02:18;;;;;;;3.58;2.10;;;;;;;;;;5134146;27;20075;-53
2021/08/04 12:04:48;;;;;;;3.80;2.05;;;;;;;;;;5134353;27;20503;-53
2021/08/04 12:07:14;;;;;;;2.38;2.03;;;;;;;;;;5134180;27;20468;-53
2021/08/04 12:09:40;;;;;;;3.75;2.58;;;;;;;;;;5134047;27;20032;-52
2021/08/04 12:12:27;;;;;;;4.15;2.28;;;;;;;;;;5134341;27;20027;-53
2021/08/04 12:14:54;;;;;;;4.38;2.33;;;;;;;;;;5133769;27;20054;-52
2021/08/04 12:17:24;;;;;;;2.53;2.30;;;;;;;;;;5134177;27;20429;-52
2021/08/04 12:19:52;;;;;;;9.10;2.63;;;;;;;;;;5133925;27;20023;-52
2021/08/04 12:22:27;;;;;;;4.22;2.65;;;;;;;;;;5133781;27;20142;-52
2021/08/04 12:24:57;;;;;;;4.18;2.60;;;;;;;;;;5133544;27;20031;-50
2021/08/04 12:27:30;;;;;;;3.55;2.53;;;;;;;;;;5133657;27;20031;-53
2021/08/04 12:30:23;;;;;;;2.97;2.10;;;;;;;;;;5133881;27;20031;-52
2021/08/04 12:32:54;;;;;;;2.50;2.30;;;;;;;;;;5112961;27;20118;-51
2021/08/04 12:35:24;;;;;;;4.05;2.70;;;;;;;;;;5133606;27;20491;-54
2021/08/04 12:37:50;;;;;;;5.65;2.45;;;;;;;;;;5133862;27;20128;-51
2021/08/04 12:40:16;;;;;;;4.55;2.53;;;;;;;;;;5133499;27;20149;-52
2021/08/04 12:42:43;;;;;;;3.30;2.58;;;;;;;;;;5133425;27;20137;-53
2021/08/04 12:45:24;;;;;;;5.30;2.45;;;;;;;;;;5133374;27;20019;-51
2021/08/04 12:47:56;;;;;;;4.53;2.40;;;;;;;;;;5133246;27;20028;-53
2021/08/04 12:50:24;;;;;;;4.50;2.47;;;;;;;;;;5133468;27;20071;-53
2021/08/04 12:52:50;;;;;;;4.88;2.55;;;;;;;;;;5133392;27;20369;-53
2021/08/04 12:55:17;;;;;;;4.50;2.78;;;;;;;;;;5133214;27;20066;-54
2021/08/04 12:57:43;;;;;;;2.97;2.15;;;;;;;;;;5133363;27;20023;-52
2021/08/04 13:00:27;;;;;;;3.42;1.63;;;;;;;;;;5133102;27;20123;-53
2021/08/04 13:02:53;;;;;;;4.25;2.22;;;;;;;;;;5133423;27;20098;-50
2021/08/04 13:05:19;;;;;;;4.40;2.28;;;;;;;;;;5133243;27;20019;-54
2021/08/04 13:07:45;;;;;;;5.45;2.55;;;;;;;;;;5133242;27;20027;-53
2021/08/04 13:10:14;;;;;;;3.97;2.08;;;;;;;;;;5133028;27;20015;-53
2021/08/04 13:12:40;;;;;;;3.72;2.20;;;;;;;;;;5133007;27;20054;-53
2021/08/04 13:15:13;;;;;;;3.63;2.10;;;;;;;;;;5133324;28;20039;-49
2021/08/04 13:17:48;;;;;;;2.38;1.77;;;;;;;;;;5132848;28;20062;-52
2021/08/04 13:20:17;;;;;;;4.93;1.75;;;;;;;;;;5133393;28;20043;-49
2021/08/04 13:22:47;;;;;;;4.30;1.50;;;;;;;;;;5131097;28;20031;-53
2021/08/04 13:25:13;;;;;;;2.78;1.90;;;;;;;;;;5128504;28;20459;-52
2021/08/04 13:27:39;;;;;;;5.07;1.20;;;;;;;;;;5131593;28;20027;-63
2021/08/04 13:30:16;;;;;;;3.22;1.70;;;;;;;;;;5131542;28;20019;-54
2021/08/04 13:32:42;;;;;;;4.03;2.28;;;;;;;;;;5130038;28;20019;-59
2021/08/04 13:35:08;;;;;;;4.10;2.63;;;;;;;;;;5131103;28;20102;-56
2021/08/04 13:37:34;;;;;;;29.85;23.75;;;;;;;;;;5131745;28;20023;-47
2021/08/04 13:40:00;;;;;;;28.88;22.15;;;;;;;;;;5131197;28;20027;-58
2021/08/04 13:42:26;;;;;;;24.17;18.85;;;;;;;;;;5132125;28;20015;-54
2021/08/04 13:44:55;;;;;;;12.90;9.13;;;;;;;;;;5131763;28;20106;-51
2021/08/04 13:47:21;;;;;;;9.45;4.85;;;;;;;;;;5131172;28;20043;-57
2021/08/04 13:49:47;;;;;;;4.15;1.80;;;;;;;;;;5131585;28;20015;-61
2021/08/04 13:52:15;;;;;;;5.03;1.98;;;;;;;;;;5118247;28;20079;-52
2021/08/04 13:54:41;;;;;;;36.33;22.33;;;;;;;;;;5131616;28;20039;-60
2021/08/04 13:57:07;;;;;;;79.40;51.97;;;;;;;;;;5131118;28;20068;-56
2021/08/04 13:59:33;;;;;;;46.40;29.23;;;;;;;;;;5131409;28;20465;-61
2021/08/04 14:02:02;;;;;;;16.85;11.18;;;;;;;;;;5132604;27;20030;-62
2021/08/04 14:04:28;;;;;;;62.65;42.97;;;;;;;;;;5136873;27;20036;-61
2021/08/04 14:06:54;;;;;;;32.42;16.50;;;;;;;;;;5136643;27;20015;-58
2021/08/04 14:09:20;;;;;;;22.23;17.13;;;;;;;;;;5138293;27;20472;-53
2021/08/04 14:11:46;;;;;;;5.07;2.30;;;;;;;;;;5138003;27;20020;-60
2021/08/04 14:14:14;;;;;;;4.57;1.90;;;;;;;;;;5136580;27;20023;-57
2021/08/04 14:16:40;;;;;;;3.65;1.65;;;;;;;;;;5136614;27;20027;-54
2021/08/04 14:19:06;;;;;;;5.75;1.77;;;;;;;;;;5135814;27;20027;-57
2021/08/04 14:21:32;;;;;;;2.65;1.58;;;;;;;;;;5136474;27;20030;-52
2021/08/04 14:23:59;;;;;;;3.65;1.50;;;;;;;;;;5117849;27;20356;-59
2021/08/04 14:26:34;;;;;;;2.13;1.58;;;;;;;;;;5136012;27;20051;-59
2021/08/04 14:29:01;;;;;;;1.73;1.42;;;;;;;;;;5119341;27;20406;-57
2021/08/04 14:31:27;;;;;;;2.50;1.80;;;;;;;;;;5156037;27;20391;-56
2021/08/04 14:33:55;;;;;;;4.45;1.90;;;;;;;;;;5156763;27;20022;-50
2021/08/04 14:36:21;;;;;;;3.00;1.90;;;;;;;;;;5156381;27;20042;-59
2021/08/04 14:38:48;;;;;;;3.65;2.00;;;;;;;;;;5137280;27;20022;-57
2021/08/04 14:41:14;;;;;;;3.30;1.83;;;;;;;;;;5155538;27;20084;-53
2021/08/04 14:43:40;;;;;;;4.35;1.92;;;;;;;;;;5155580;27;20110;-59
2021/08/04 14:46:06;;;;;;;2.20;1.55;;;;;;;;;;5155561;27;20061;-58
2021/08/04 14:48:33;;;;;;;3.88;1.95;;;;;;;;;;5155542;27;20384;-57
2021/08/04 14:50:59;;;;;;;5.45;1.77;;;;;;;;;;5155187;27;20027;-58
2021/08/04 14:53:26;;;;;;;4.75;1.77;;;;;;;;;;5155018;27;20094;-57
2021/08/04 14:55:52;;;;;;;2.95;1.88;;;;;;;;;;5137527;27;20042;-57
2021/08/04 14:58:22;;;;;;;4.68;2.03;;;;;;;;;;5156152;27;20054;-58
2021/08/04 15:00:48;;;;;;;3.88;1.83;;;;;;;;;;5155764;27;20022;-59
2021/08/04 15:03:15;;;;;;;3.15;2.13;;;;;;;;;;5155943;27;20019;-56
2021/08/04 15:05:41;;;;;;;5.40;2.55;;;;;;;;;;5137571;27;20019;-56
2021/08/04 15:08:07;;;;;;;9.57;5.85;;;;;;;;;;5155872;27;20029;-60
2021/08/04 15:10:33;;;;;;;21.70;12.50;;;;;;;;;;5137118;27;20087;-58
2021/08/04 15:12:59;;;;;;;3.85;2.58;;;;;;;;;;5155722;27;20122;-58
2021/08/04 15:15:26;;;;;;;7.25;2.13;;;;;;;;;;5155888;27;20034;-58
2021/08/04 15:17:52;;;;;;;3.25;1.92;;;;;;;;;;5156189;27;20022;-69
2021/08/04 15:20:18;;;;;;;3.00;1.80;;;;;;;;;;5155680;27;20061;-55
2021/08/04 15:22:44;;;;;;;4.93;1.73;;;;;;;;;;5136802;27;20079;-58
2021/08/04 15:25:10;;;;;;;3.80;2.00;;;;;;;;;;5155282;27;20119;-48
2021/08/04 15:27:36;;;;;;;9.32;5.45;;;;;;;;;;5137059;27;20026;-61
2021/08/04 15:30:03;;;;;;;5.82;2.63;;;;;;;;;;5135914;27;20019;-52
2021/08/04 15:32:29;;;;;;;6.53;2.38;;;;;;;;;;5133674;27;20059;-52
2021/08/04 15:34:56;;;;;;;6.72;2.20;;;;;;;;;;5134603;27;20467;-56
2021/08/04 15:37:22;;;;;;;4.95;1.83;;;;;;;;;;5135005;27;20042;-55
2021/08/04 15:39:48;;;;;;;3.13;1.80;;;;;;;;;;5134549;27;20016;-58
2021/08/04 15:42:14;;;;;;;2.95;1.90;;;;;;;;;;5134740;27;20493;-58
2021/08/04 15:44:40;;;;;;;6.55;1.90;;;;;;;;;;5134633;27;20023;-58
2021/08/04 15:47:07;;;;;;;4.28;1.98;;;;;;;;;;5134478;27;20034;-58
2021/08/04 15:49:35;;;;;;;4.57;1.80;;;;;;;;;;5134366;27;20029;-59
2021/08/04 15:52:01;;;;;;;4.03;2.30;;;;;;;;;;5134292;27;20034;-62
2021/08/04 15:54:28;;;;;;;4.57;2.00;;;;;;;;;;5134150;27;20019;-58
2021/08/04 15:56:54;;;;;;;5.75;2.15;;;;;;;;;;5134148;27;20031;-46
2021/08/04 15:59:20;;;;;;;3.35;1.90;;;;;;;;;;5134219;27;20500;-61
2021/08/04 16:01:49;;;;;;;2.47;1.88;;;;;;;;;;5134073;27;20037;-56
2021/08/04 16:04:15;;;;;;;2.78;2.05;;;;;;;;;;5133761;27;20038;-56
2021/08/04 16:06:41;;;;;;;6.68;2.50;;;;;;;;;;5134271;27;20020;-59
2021/08/04 16:09:07;;;;;;;3.50;2.15;;;;;;;;;;5133717;27;20039;-58
2021/08/04 16:11:33;;;;;;;4.70;2.38;;;;;;;;;;5133913;27;20555;-59
2021/08/04 16:14:00;;;;;;;7.90;2.80;;;;;;;;;;5115330;27;20055;-53
2021/08/04 16:16:27;;;;;;;4.72;2.47;;;;;;;;;;5133805;27;20043;-56
2021/08/04 16:18:53;;;;;;;6.53;2.42;;;;;;;;;;5133809;27;20042;-54
2021/08/04 16:21:20;;;;;;;4.45;2.05;;;;;;;;;;5133980;27;20034;-55
2021/08/04 16:23:46;;;;;;;67.40;45.75;;;;;;;;;;5133258;27;20023;-57
2021/08/04 16:26:13;;;;;;;8.75;4.25;;;;;;;;;;5133049;27;20075;-51
2021/08/04 16:28:39;;;;;;;8.38;3.33;;;;;;;;;;5140114;27;20160;-54
2021/08/04 16:31:05;;;;;;;5.72;2.40;;;;;;;;;;5154267;27;20027;-54
2021/08/04 16:33:32;;;;;;;8.98;3.97;;;;;;;;;;5154277;27;20019;-48
2021/08/04 16:35:58;;;;;;;6.28;3.92;;;;;;;;;;5153939;27;20035;-49
2021/08/04 16:38:25;;;;;;;6.68;2.53;;;;;;;;;;5154237;27;20023;-45
2021/08/04 16:40:51;;;;;;;4.22;1.83;;;;;;;;;;5153845;27;20084;-51
2021/08/04 16:43:17;;;;;;;4.18;1.70;;;;;;;;;;5154185;27;20025;-53
2021/08/04 16:45:44;;;;;;;4.22;1.92;;;;;;;;;;5153820;27;20387;-47
2021/08/04 16:48:10;;;;;;;6.72;3.67;;;;;;;;;;5153648;27;20026;-46
2021/08/04 16:50:37;;;;;;;7.28;1.88;;;;;;;;;;5153931;27;20026;-48
2021/08/04 16:53:03;;;;;;;5.38;2.58;;;;;;;;;;5153960;27;20010;-45
2021/08/04 16:55:29;;;;;;;7.53;2.00;;;;;;;;;;5119243;27;20039;-48
2021/08/04 16:57:55;;;;;;;8.38;2.33;;;;;;;;;;5098607;27;20020;-51
2021/08/04 17:00:27;;;;;;;5.63;2.72;;;;;;;;;;5098757;27;20128;-49
2021/08/04 17:02:53;;;;;;;6.72;2.35;;;;;;;;;;5098731;27;20027;-52
2021/08/04 17:05:19;;;;;;;9.05;2.60;;;;;;;;;;5098184;27;20054;-51
2021/08/04 17:07:46;;;;;;;10.88;4.65;;;;;;;;;;5097862;27;21072;-48
2021/08/04 17:10:12;;;;;;;8.10;2.60;;;;;;;;;;5097975;27;20045;-48
2021/08/04 17:12:39;;;;;;;5.63;2.33;;;;;;;;;;5098229;27;20338;-50
2021/08/04 17:15:06;;;;;;;3.92;2.08;;;;;;;;;;5097696;28;20452;-48
2021/08/04 17:17:36;;;;;;;4.97;2.70;;;;;;;;;;5097557;28;20796;-49
2021/08/04 17:20:06;;;;;;;19.25;13.32;;;;;;;;;;5096875;28;20027;-42
2021/08/04 17:22:34;;;;;;;16.40;9.35;;;;;;;;;;5096671;28;20437;-48
2021/08/04 17:25:00;;;;;;;13.60;8.05;;;;;;;;;;5097180;28;20050;-47
2021/08/04 17:27:26;;;;;;;4.55;3.08;;;;;;;;;;5079276;28;20388;-47
2021/08/04 17:29:52;;;;;;;6.88;2.90;;;;;;;;;;5096745;28;20024;-44
2021/08/04 17:32:19;;;;;;;14.82;11.30;;;;;;;;;;5096647;28;20847;-43
2021/08/04 17:34:45;;;;;;;34.53;20.15;;;;;;;;;;5097757;28;20031;-47
2021/08/04 17:37:11;;;;;;;15.77;10.95;;;;;;;;;;5100306;27;20034;-51
2021/08/04 17:39:37;;;;;;;14.82;9.88;;;;;;;;;;5101588;27;20031;-52
2021/08/04 17:42:03;;;;;;;11.50;7.55;;;;;;;;;;5102858;27;20027;-51
2021/08/04 17:44:30;;;;;;;5.80;2.47;;;;;;;;;;5102031;27;20677;-49
2021/08/04 17:46:56;;;;;;;45.15;21.02;;;;;;;;;;5101497;27;20421;-47
2021/08/04 17:49:23;;;;;;;12.02;6.32;;;;;;;;;;5102405;27;20114;-48
2021/08/04 17:51:49;;;;;;;68.10;41.95;;;;;;;;;;5101172;27;20073;-51
2021/08/04 17:54:15;;;;;;;10.50;4.38;;;;;;;;;;5102033;27;20023;-49
2021/08/04 17:56:41;;;;;;;8.32;4.05;;;;;;;;;;5101629;27;20032;-54
2021/08/04 17:59:07;;;;;;;4.68;2.42;;;;;;;;;;5102524;27;20034;-47
2021/08/04 18:01:33;;;;;;;3.75;2.35;;;;;;;;;;5101835;27;20674;-51
2021/08/04 18:04:02;;;;;;;3.85;2.63;;;;;;;;;;5101611;27;20023;-51
2021/08/04 18:06:28;;;;;;;4.65;2.55;;;;;;;;;;5101633;27;20514;-55
2021/08/04 18:08:55;;;;;;;5.50;2.53;;;;;;;;;;5101817;27;20020;-56
2021/08/04 18:11:23;;;;;;;7.20;4.22;;;;;;;;;;5101418;27;20027;-55
2021/08/04 18:13:49;;;;;;;36.28;22.63;;;;;;;;;;5101460;27;20027;-57
2021/08/04 18:16:16;;;;;;;47.30;34.97;;;;;;;;;;5101690;27;20042;-56
2021/08/04 18:18:42;;;;;;;5.85;3.17;;;;;;;;;;5101014;27;20032;-52
2021/08/04 18:21:09;;;;;;;4.82;2.20;;;;;;;;;;5101659;27;20765;-57
2021/08/04 18:23:35;;;;;;;5.90;2.33;;;;;;;;;;5100773;27;20026;-56
2021/08/04 18:26:01;;;;;;;6.53;2.58;;;;;;;;;;5101059;27;20055;-55
2021/08/04 18:28:27;;;;;;;4.75;2.03;;;;;;;;;;5100939;27;20034;-54
2021/08/04 18:30:55;;;;;;;4.80;2.20;;;;;;;;;;5101273;27;20472;-56
2021/08/04 18:33:21;;;;;;;7.22;2.83;;;;;;;;;;5100753;27;20019;-55
2021/08/04 18:35:47;;;;;;;6.60;2.30;;;;;;;;;;5101088;27;20039;-53
2021/08/04 18:38:15;;;;;;;6.43;2.30;;;;;;;;;;5101077;27;20146;-57
2021/08/04 18:40:44;;;;;;;8.25;2.50;;;;;;;;;;5101375;27;20466;-53
2021/08/04 18:43:10;;;;;;;2.90;2.20;;;;;;;;;;5100957;27;20862;-56
2021/08/04 18:45:39;;;;;;;5.78;2.17;;;;;;;;;;5101012;27;20039;-52
2021/08/04 18:48:05;;;;;;;3.28;2.08;;;;;;;;;;5100071;27;20106;-54
2021/08/04 18:50:31;;;;;;;4.28;2.70;;;;;;;;;;5101288;27;20038;-52
2021/08/04 18:52:57;;;;;;;4.53;2.30;;;;;;;;;;5100879;27;20161;-52
2021/08/04 18:55:24;;;;;;;6.93;2.28;;;;;;;;;;5100551;27;20043;-54
2021/08/04 18:57:54;;;;;;;9.00;2.45;;;;;;;;;;5100842;27;20097;-56
2021/08/04 19:00:20;;;;;;;3.80;2.33;;;;;;;;;;5100888;27;20532;-55
2021/08/04 19:02:48;;;;;;;6.18;2.30;;;;;;;;;;5100953;27;20035;-55
2021/08/04 19:05:18;;;;;;;6.75;2.35;;;;;;;;;;5100452;27;20039;-56
2021/08/04 19:07:44;;;;;;;4.43;2.10;;;;;;;;;;5100229;27;20023;-54
2021/08/04 19:10:10;;;;;;;5.47;2.05;;;;;;;;;;5100543;27;20050;-57
2021/08/04 19:12:36;;;;;;;6.00;2.30;;;;;;;;;;5100596;27;20019;-57
2021/08/04 19:15:02;;;;;;;5.32;2.10;;;;;;;;;;5100108;27;20034;-50
2021/08/04 19:17:30;;;;;;;4.43;2.65;;;;;;;;;;5100063;27;20043;-55
2021/08/04 19:19:56;;;;;;;4.80;2.42;;;;;;;;;;5100607;27;20110;-57
2021/08/04 19:22:23;;;;;;;12.43;3.08;;;;;;;;;;5100462;27;20864;-54
2021/08/04 19:24:49;;;;;;;5.72;2.50;;;;;;;;;;5099918;27;20891;-58
2021/08/04 19:27:15;;;;;;;5.22;2.30;;;;;;;;;;5099735;27;20047;-56
2021/08/04 19:29:41;;;;;;;9.40;2.58;;;;;;;;;;5099501;27;20141;-49
2021/08/04 19:32:07;;;;;;;6.93;2.53;;;;;;;;;;5099955;27;20431;-56
2021/08/04 19:34:34;;;;;;;8.88;2.22;;;;;;;;;;5100287;27;20034;-56
2021/08/04 19:37:00;;;;;;;7.43;2.10;;;;;;;;;;5100224;27;20055;-51
2021/08/04 19:39:26;;;;;;;6.30;2.67;;;;;;;;;;5100012;27;20131;-51
2021/08/04 19:41:52;;;;;;;6.28;2.35;;;;;;;;;;5099554;27;20066;-55
2021/08/04 19:44:18;;;;;;;3.33;2.30;;;;;;;;;;5099661;27;20030;-51
2021/08/04 19:46:44;;;;;;;7.50;2.47;;;;;;;;;;5099857;27;20057;-51
2021/08/04 19:49:10;;;;;;;3.80;2.45;;;;;;;;;;5099354;27;20035;-55
2021/08/04 19:51:38;;;;;;;4.38;2.40;;;;;;;;;;5099553;27;20029;-51
2021/08/04 19:54:05;;;;;;;5.30;2.33;;;;;;;;;;5099241;27;20020;-52
2021/08/04 19:56:31;;;;;;;7.57;2.60;;;;;;;;;;5099269;27;20087;-46
2021/08/04 19:58:57;;;;;;;5.68;2.88;;;;;;;;;;5098837;27;20519;-55
2021/08/04 20:01:23;;;;;;;11.13;3.22;;;;;;;;;;5113035;27;20046;-58
2021/08/04 20:03:49;;;;;;;5.45;3.03;;;;;;;;;;5133876;27;20027;-58
2021/08/04 20:06:15;;;;;;;7.65;3.10;;;;;;;;;;5133786;27;20015;-58
2021/08/04 20:08:44;;;;;;;9.88;3.00;;;;;;;;;;5133910;27;20019;-61
2021/08/04 20:11:11;;;;;;;8.30;3.15;;;;;;;;;;5133784;27;20544;-59
2021/08/04 20:13:37;;;;;;;6.95;3.15;;;;;;;;;;5133719;27;20023;-55
2021/08/04 20:16:03;;;;;;;7.07;3.20;;;;;;;;;;5133640;27;20457;-59
2021/08/04 20:18:29;;;;;;;8.27;3.53;;;;;;;;;;5133502;27;20027;-60
2021/08/04 20:20:55;;;;;;;6.93;3.15;;;;;;;;;;5133394;27;20030;-58
2021/08/04 20:23:22;;;;;;;6.38;3.13;;;;;;;;;;5133566;27;20015;-61
2021/08/04 20:25:49;;;;;;;10.07;3.35;;;;;;;;;;5133569;27;20047;-49
2021/08/04 20:28:15;;;;;;;7.63;3.13;;;;;;;;;;5134340;27;20019;-60
2021/08/04 20:30:41;;;;;;;7.32;3.03;;;;;;;;;;5133962;27;20027;-59
2021/08/04 20:33:07;;;;;;;8.20;3.40;;;;;;;;;;5133542;27;20023;-59
2021/08/04 20:35:33;;;;;;;6.60;2.83;;;;;;;;;;5133265;27;20026;-58
2021/08/04 20:37:59;;;;;;;9.13;3.10;;;;;;;;;;5133310;27;20019;-58
2021/08/04 20:40:26;;;;;;;12.10;3.47;;;;;;;;;;5133443;27;20460;-59
2021/08/04 20:42:52;;;;;;;8.02;3.00;;;;;;;;;;5134672;27;20465;-59
2021/08/04 20:45:18;;;;;;;5.65;3.20;;;;;;;;;;5133473;27;20027;-59
2021/08/04 20:47:44;;;;;;;7.45;3.30;;;;;;;;;;5133499;27;20027;-59
2021/08/04 20:50:11;;;;;;;8.75;3.50;;;;;;;;;;5133508;27;20102;-56
2021/08/04 20:52:49;;;;;;;4.53;3.03;;;;;;;;;;5132943;27;20547;-59
2021/08/04 20:55:16;;;;;;;8.07;3.20;;;;;;;;;;5120255;27;20034;-59
2021/08/04 20:57:43;;;;;;;4.57;3.40;;;;;;;;;;5133219;27;20046;-46
2021/08/04 21:00:10;;;;;;;8.18;3.40;;;;;;;;;;5133097;27;20062;-61
2021/08/04 21:02:39;;;;;;;6.43;3.25;;;;;;;;;;5133004;27;20033;-62
2021/08/04 21:05:06;;;;;;;11.00;3.28;;;;;;;;;;5133313;27;20023;-65
2021/08/04 21:07:34;;;;;;;8.00;3.90;;;;;;;;;;5133847;27;20552;-63
2021/08/04 21:10:01;;;;;;;9.35;3.88;;;;;;;;;;5134079;27;20023;-64
2021/08/04 21:12:27;;;;;;;6.20;3.35;;;;;;;;;;5133983;27;20079;-63
2021/08/04 21:14:53;;;;;;;7.65;3.67;;;;;;;;;;5134175;28;20026;-66
2021/08/04 21:17:23;;;;;;;6.60;3.38;;;;;;;;;;5134047;28;20392;-61
2021/08/04 21:19:49;;;;;;;5.97;4.03;;;;;;;;;;5134021;28;20055;-63
2021/08/04 21:22:16;;;;;;;8.00;3.35;;;;;;;;;;5134159;28;20019;-62
2021/08/04 21:24:42;;;;;;;4.50;3.75;;;;;;;;;;5133873;28;20027;-62
2021/08/04 21:27:08;;;;;;;8.38;4.18;;;;;;;;;;5133773;28;20042;-59
2021/08/04 21:29:34;;;;;;;6.45;3.92;;;;;;;;;;5134027;28;20491;-53
2021/08/04 21:32:00;;;;;;;9.05;3.55;;;;;;;;;;5134027;28;20115;-60
2021/08/04 21:34:27;;;;;;;4.80;4.05;;;;;;;;;;5133792;27;20084;-56
2021/08/04 21:36:53;;;;;;;6.63;3.80;;;;;;;;;;5133627;28;20041;-53
2021/08/04 21:39:20;;;;;;;7.70;4.15;;;;;;;;;;5132887;28;20011;-58
2021/08/04 21:41:46;;;;;;;7.78;4.00;;;;;;;;;;5132850;28;20102;-52
2021/08/04 21:44:14;;;;;;;6.95;3.88;;;;;;;;;;5132444;28;20015;-58
2021/08/04 21:46:40;;;;;;;8.05;3.72;;;;;;;;;;5132476;28;20023;-56
2021/08/04 21:49:06;;;;;;;6.55;4.35;;;;;;;;;;5112618;27;20040;-49
2021/08/04 21:51:32;;;;;;;11.02;3.88;;;;;;;;;;5098018;28;20019;-54
2021/08/04 21:53:58;;;;;;;6.68;4.05;;;;;;;;;;5097310;28;20023;-48
2021/08/04 21:56:25;;;;;;;10.43;4.05;;;;;;;;;;5097918;28;20035;-53
2021/08/04 21:58:51;;;;;;;7.75;3.97;;;;;;;;;;5098031;28;20028;-54
2021/08/04 22:01:17;;;;;;;9.30;4.43;;;;;;;;;;5098432;28;20114;-54
2021/08/04 22:03:43;;;;;;;5.45;3.97;;;;;;;;;;5097594;28;20020;-56
2021/08/04 22:06:09;;;;;;;9.48;4.50;;;;;;;;;;5097801;28;20469;-51
2021/08/04 22:08:35;;;;;;;8.48;5.25;;;;;;;;;;5097748;28;20020;-56
2021/08/04 22:11:01;;;;;;;9.38;4.80;;;;;;;;;;5098530;28;20780;-53
2021/08/04 22:13:27;;;;;;;9.32;4.68;;;;;;;;;;5098163;28;20019;-54
2021/08/04 22:15:53;;;;;;;10.55;5.05;;;;;;;;;;5097215;28;20035;-56
2021/08/04 22:18:19;;;;;;;12.25;5.13;;;;;;;;;;5098085;28;20023;-53
2021/08/04 22:20:46;;;;;;;7.93;4.50;;;;;;;;;;5097734;28;20042;-56
2021/08/04 22:23:13;;;;;;;9.07;4.68;;;;;;;;;;5099746;27;20023;-55
2021/08/04 22:25:39;;;;;;;8.93;4.70;;;;;;;;;;5101131;27;20847;-58
2021/08/04 22:28:06;;;;;;;5.75;4.55;;;;;;;;;;5101551;27;20031;-51
2021/08/04 22:30:32;;;;;;;7.90;4.47;;;;;;;;;;5101174;27;20047;-57
2021/08/04 22:33:00;;;;;;;7.10;4.85;;;;;;;;;;5101104;27;20041;-51
2021/08/04 22:35:27;;;;;;;9.13;3.90;;;;;;;;;;5101006;27;20539;-46
2021/08/04 22:37:53;;;;;;;11.00;4.47;;;;;;;;;;5101588;27;20544;-46
2021/08/04 22:40:20;;;;;;;7.28;4.70;;;;;;;;;;5101110;27;20036;-47
2021/08/04 22:42:46;;;;;;;11.65;4.85;;;;;;;;;;5100121;27;20034;-52
2021/08/04 22:45:12;;;;;;;7.78;4.35;;;;;;;;;;5100705;27;20019;-50
2021/08/04 22:47:38;;;;;;;5.97;4.50;;;;;;;;;;5101589;27;20023;-54
2021/08/04 22:50:05;;;;;;;9.95;4.65;;;;;;;;;;5100718;27;20024;-57
2021/08/04 22:52:31;;;;;;;9.43;4.47;;;;;;;;;;5101385;27;20087;-50
2021/08/04 22:54:57;;;;;;;7.30;4.50;;;;;;;;;;5100010;27;20493;-55
2021/08/04 22:57:23;;;;;;;6.55;3.90;;;;;;;;;;5101231;27;20043;-61
2021/08/04 22:59:49;;;;;;;7.20;4.35;;;;;;;;;;5100296;27;20068;-53
2021/08/04 23:02:17;;;;;;;7.40;4.40;;;;;;;;;;5100841;27;20038;-55
2021/08/04 23:04:43;;;;;;;8.43;4.50;;;;;;;;;;5100433;27;20459;-52
2021/08/04 23:07:10;;;;;;;8.43;4.38;;;;;;;;;;5100880;27;20114;-49
2021/08/04 23:09:36;;;;;;;8.13;4.63;;;;;;;;;;5099907;27;20027;-51
2021/08/04 23:12:02;;;;;;;7.97;4.38;;;;;;;;;;5100718;27;20520;-50
2021/08/04 23:14:28;;;;;;;9.27;4.78;;;;;;;;;;5100471;27;20031;-55
2021/08/04 23:16:54;;;;;;;6.85;4.40;;;;;;;;;;5100028;27;20039;-55
2021/08/04 23:19:20;;;;;;;7.88;4.70;;;;;;;;;;5100398;27;20915;-55
2021/08/04 23:21:46;;;;;;;8.75;4.55;;;;;;;;;;5100683;27;20046;-50
2021/08/04 23:24:12;;;;;;;5.18;3.95;;;;;;;;;;5100335;27;20016;-57
2021/08/04 23:26:40;;;;;;;10.60;4.10;;;;;;;;;;5100413;27;20649;-51
2021/08/04 23:29:06;;;;;;;6.78;4.13;;;;;;;;;;5100558;27;20028;-49
2021/08/04 23:31:33;;;;;;;8.52;4.68;;;;;;;;;;5100009;27;20015;-54
2021/08/04 23:33:59;;;;;;;7.10;4.20;;;;;;;;;;5100055;27;20059;-51
2021/08/04 23:36:25;;;;;;;7.72;4.32;;;;;;;;;;5100083;27;20098;-56
2021/08/04 23:38:51;;;;;;;6.85;4.50;;;;;;;;;;5099955;27;20094;-50
2021/08/04 23:41:18;;;;;;;6.70;4.50;;;;;;;;;;5100140;27;20027;-59
2021/08/04 23:43:46;;;;;;;4.90;3.90;;;;;;;;;;5100264;27;20019;-56